Time;durP1;ratioP1;P1;durP2;ratioP2;P2;SDS_P1;SDS_P2;PMS_P1;PMS_P2;Temp;Humidity;BMP_temperature;BMP_pressure;BME280_temperature;BME280_humidity;BME280_pressure;Samples;Min_cycle;Max_cycle;Signal;HPM_P1;HPM_P2
2022/03/09 00:01:23;;;;;;;5.97;2.65;;;;;;;-5.66;48.93;99905.94;5069067;28;20571;-59
2022/03/09 00:03:51;;;;;;;4.78;2.28;;;;;;;-5.60;48.43;99906.94;5064910;28;20077;-58
2022/03/09 00:06:18;;;;;;;6.70;2.60;;;;;;;-5.54;48.27;99905.25;5067616;28;20135;-59
2022/03/09 00:08:45;;;;;;;5.47;2.83;;;;;;;-5.65;47.48;99904.88;5066094;28;20049;-61
2022/03/09 00:11:12;;;;;;;6.60;2.88;;;;;;;-5.76;48.56;99905.59;5058001;28;20569;-58
2022/03/09 00:13:39;;;;;;;8.73;2.33;;;;;;;-5.88;47.82;99899.25;5044935;28;20144;-58
2022/03/09 00:16:06;;;;;;;14.27;2.22;;;;;;;-5.84;48.97;99905.88;5065335;28;20121;-58
2022/03/09 00:18:34;;;;;;;5.05;2.38;;;;;;;-5.82;48.80;99906.50;5071515;28;20084;-59
2022/03/09 00:21:01;;;;;;;7.93;2.47;;;;;;;-5.80;48.12;99909.78;5069179;28;20055;-59
2022/03/09 00:23:28;;;;;;;4.05;1.63;;;;;;;-5.91;49.13;99901.56;5046634;28;20546;-60
2022/03/09 00:25:55;;;;;;;5.57;2.35;;;;;;;-5.96;48.26;99914.91;5034406;28;20143;-58
2022/03/09 00:28:22;;;;;;;4.60;1.88;;;;;;;-5.93;48.76;99920.75;5070189;28;20557;-58
2022/03/09 00:30:49;;;;;;;3.67;1.58;;;;;;;-6.22;48.32;99915.91;5071090;28;20495;-59
2022/03/09 00:33:16;;;;;;;5.65;2.13;;;;;;;-6.25;49.11;99910.91;5068946;28;20080;-59
2022/03/09 00:35:44;;;;;;;8.85;2.03;;;;;;;-6.16;48.81;99925.84;5064439;28;20049;-59
2022/03/09 00:38:11;;;;;;;4.85;1.83;;;;;;;-6.14;48.93;99923.78;5034030;28;20504;-59
2022/03/09 00:40:38;;;;;;;4.90;2.08;;;;;;;-6.14;48.83;99922.94;5063363;28;20476;-60
2022/03/09 00:43:05;;;;;;;7.68;1.52;;;;;;;-6.10;48.88;99930.41;5068521;28;20438;-59
2022/03/09 00:45:35;;;;;;;8.38;2.50;;;;;;;-6.09;49.16;99925.84;5043430;28;20144;-59
2022/03/09 00:48:02;;;;;;;3.40;2.00;;;;;;;-6.06;48.80;99928.09;5035440;28;20128;-58
2022/03/09 00:50:29;;;;;;;4.57;1.88;;;;;;;-5.99;48.70;99932.44;5061446;28;20110;-58
2022/03/09 00:52:56;;;;;;;5.57;2.05;;;;;;;-5.91;48.26;99924.06;5068583;28;20554;-60
2022/03/09 00:55:23;;;;;;;4.60;1.88;;;;;;;-5.90;48.30;99930.28;5070733;28;20079;-60
2022/03/09 00:57:50;;;;;;;5.13;1.88;;;;;;;-6.03;47.89;99923.09;5067939;28;20147;-59
2022/03/09 01:00:17;;;;;;;5.10;2.28;;;;;;;-6.20;49.52;99918.38;5045484;28;20098;-59
2022/03/09 01:02:45;;;;;;;6.43;1.60;;;;;;;-6.24;49.04;99933.41;5063951;28;20448;-59
2022/03/09 01:05:14;;;;;;;5.07;2.30;;;;;;;-6.25;49.53;99927.16;5070549;28;20059;-60
2022/03/09 01:07:42;;;;;;;1.92;1.00;;;;;;;-6.33;49.32;99919.31;5069729;28;20496;-59
2022/03/09 01:10:10;;;;;;;7.13;2.10;;;;;;;-6.41;49.42;99933.06;5069750;28;20086;-58
2022/03/09 01:12:38;;;;;;;5.63;2.22;;;;;;;-6.44;48.84;99928.09;5070815;28;20052;-63
2022/03/09 01:15:06;;;;;;;4.25;2.17;;;;;;;-6.45;48.45;99931.81;5033617;28;20041;-63
2022/03/09 01:17:33;;;;;;;5.47;2.45;;;;;;;-6.47;49.69;99943.91;5064131;28;20044;-64
2022/03/09 01:20:01;;;;;;;3.42;1.58;;;;;;;-6.51;49.48;99940.78;5067711;28;20051;-64
2022/03/09 01:22:32;;;;;;;4.05;1.70;;;;;;;-6.64;49.22;99938.13;5070622;28;20131;-62
2022/03/09 01:24:59;;;;;;;3.30;1.65;;;;;;;-6.65;49.79;99958.13;5059619;28;20040;-63
2022/03/09 01:27:26;;;;;;;6.28;1.90;;;;;;;-6.66;48.87;99944.81;5070350;28;20058;-63
2022/03/09 01:29:53;;;;;;;4.45;1.98;;;;;;;-6.59;48.26;99961.84;5038062;28;20136;-63
2022/03/09 01:32:21;;;;;;;4.43;2.13;;;;;;;-6.59;48.96;99953.72;5070071;28;20093;-63
2022/03/09 01:34:49;;;;;;;7.55;1.92;;;;;;;-6.60;48.47;99960.19;5067625;28;20059;-63
2022/03/09 01:37:16;;;;;;;5.10;2.22;;;;;;;-6.65;49.10;99958.13;5035226;28;20080;-64
2022/03/09 01:39:43;;;;;;;10.70;2.38;;;;;;;-6.70;49.31;99952.50;5034147;28;20049;-63
2022/03/09 01:42:11;;;;;;;4.72;1.90;;;;;;;-6.76;48.49;99961.47;5070420;28;20044;-64
2022/03/09 01:44:38;;;;;;;3.85;1.80;;;;;;;-6.79;48.82;99961.88;5059542;28;20197;-63
2022/03/09 01:47:05;;;;;;;5.07;2.20;;;;;;;-6.81;48.70;99973.97;5070063;28;20452;-63
2022/03/09 01:49:33;;;;;;;7.85;2.55;;;;;;;-6.89;48.54;99968.78;5064535;28;20098;-63
2022/03/09 01:52:00;;;;;;;3.40;1.45;;;;;;;-6.95;49.20;99972.31;5069533;28;20052;-62
2022/03/09 01:54:29;;;;;;;8.88;2.17;;;;;;;-7.05;50.01;99967.31;5068925;28;20450;-63
2022/03/09 01:56:57;;;;;;;3.75;1.88;;;;;;;-7.10;48.66;99971.72;5056504;28;20052;-63
2022/03/09 01:59:25;;;;;;;5.78;2.30;;;;;;;-7.25;48.56;99977.34;5069632;28;20072;-63
2022/03/09 02:01:56;;;;;;;5.70;2.13;;;;;;;-7.44;49.46;99983.53;5068385;28;20044;-63
2022/03/09 02:04:23;;;;;;;4.13;1.73;;;;;;;-7.54;49.51;99977.72;5069597;28;20049;-63
2022/03/09 02:06:50;;;;;;;6.45;2.10;;;;;;;-7.64;50.18;99971.91;5067212;28;20128;-63
2022/03/09 02:12:03;;;;;;;9.27;2.17;;;;;;;-7.71;49.57;99987.25;5057291;28;20123;-64
2022/03/09 02:14:30;;;;;;;4.63;1.98;;;;;;;-7.68;49.59;99986.84;5069117;28;20129;-65
2022/03/09 02:17:04;;;;;;;4.75;1.92;;;;;;;-7.63;49.32;99985.22;5056123;28;20400;-64
2022/03/09 02:19:31;;;;;;;6.85;2.15;;;;;;;-7.62;48.84;99991.44;5068691;28;20068;-64
2022/03/09 02:22:06;;;;;;;4.10;2.15;;;;;;;-7.67;49.04;99999.34;5068763;28;20408;-63
2022/03/09 02:24:34;;;;;;;4.72;1.98;;;;;;;-7.75;50.10;99996.81;5060572;28;20069;-64
2022/03/09 02:27:03;;;;;;;6.15;1.95;;;;;;;-7.72;49.35;100007.19;5036583;28;20045;-63
2022/03/09 02:29:30;;;;;;;5.55;1.90;;;;;;;-7.75;49.10;99996.81;5067083;28;20052;-63
2022/03/09 02:32:01;;;;;;;6.25;2.03;;;;;;;-7.79;50.05;100006.34;5071501;28;20102;-63
2022/03/09 02:34:29;;;;;;;5.25;1.77;;;;;;;-7.84;49.34;100000.72;5073537;28;20141;-64
2022/03/09 02:36:57;;;;;;;6.25;2.20;;;;;;;-7.85;49.17;100004.44;5062824;28;20131;-63
2022/03/09 02:39:24;;;;;;;4.80;2.10;;;;;;;-7.89;49.59;100008.59;5043882;28;20611;-63
2022/03/09 02:41:51;;;;;;;4.78;1.75;;;;;;;-7.88;49.82;100013.78;5070535;28;20355;-58
2022/03/09 02:44:18;;;;;;;4.07;2.53;;;;;;;-7.85;50.00;100015.25;5072788;28;20151;-56
2022/03/09 02:46:45;;;;;;;7.40;2.92;;;;;;;-7.84;49.71;100022.34;5041015;28;20059;-60
2022/03/09 02:49:12;;;;;;;7.20;2.08;;;;;;;-7.87;49.47;100017.34;5045152;28;20056;-60
2022/03/09 02:51:39;;;;;;;8.65;2.33;;;;;;;-7.87;49.37;100033.53;5038434;28;20048;-60
2022/03/09 02:54:06;;;;;;;3.60;1.85;;;;;;;-7.88;49.76;100034.56;5072589;28;20044;-60
2022/03/09 02:56:33;;;;;;;6.82;2.88;;;;;;;-7.91;50.15;100027.69;5070697;28;20496;-58
2022/03/09 02:59:00;;;;;;;4.20;2.03;;;;;;;-7.95;50.20;100028.31;5047565;28;20084;-57
2022/03/09 03:01:27;;;;;;;3.60;2.08;;;;;;;-7.95;50.26;100031.00;5066120;28;20075;-59
2022/03/09 03:03:55;;;;;;;5.13;2.20;;;;;;;-8.02;50.21;100022.06;5072763;28;20052;-60
2022/03/09 03:06:23;;;;;;;5.35;2.28;;;;;;;-8.07;49.93;100029.91;5071699;28;20055;-65
2022/03/09 03:08:50;;;;;;;4.85;2.10;;;;;;;-8.11;49.51;100034.06;5036525;28;20136;-66
2022/03/09 03:11:18;;;;;;;7.53;2.15;;;;;;;-8.11;50.13;100031.38;5066344;28;20048;-67
2022/03/09 03:13:45;;;;;;;4.05;2.03;;;;;;;-8.07;49.75;100035.31;5066009;28;20496;-66
2022/03/09 03:16:12;;;;;;;6.82;2.30;;;;;;;-8.16;50.01;100031.13;5065621;28;20135;-65
2022/03/09 03:18:39;;;;;;;5.25;1.95;;;;;;;-8.21;50.44;100044.38;5065908;28;20049;-65
2022/03/09 03:21:06;;;;;;;4.63;2.15;;;;;;;-8.23;49.71;100038.41;5064664;28;20131;-67
2022/03/09 03:23:35;;;;;;;4.65;2.13;;;;;;;-8.30;49.98;100038.38;5069980;28;20053;-66
2022/03/09 03:26:04;;;;;;;4.10;1.63;;;;;;;-8.29;50.84;100047.28;5072593;28;20051;-65
2022/03/09 03:28:32;;;;;;;5.85;2.55;;;;;;;-8.36;50.63;100046.41;5069693;28;20482;-65
2022/03/09 03:30:59;;;;;;;6.68;2.13;;;;;;;-8.47;50.53;100044.28;5072200;28;20106;-66
2022/03/09 03:33:27;;;;;;;7.85;2.63;;;;;;;-8.46;49.94;100045.94;5023293;28;20530;-66
2022/03/09 03:35:54;;;;;;;4.53;2.33;;;;;;;-8.42;50.31;100052.59;5045376;28;20136;-63
2022/03/09 03:38:21;;;;;;;3.53;2.25;;;;;;;-8.44;50.30;100046.59;5066274;28;20061;-64
2022/03/09 03:40:48;;;;;;;5.13;2.40;;;;;;;-8.46;50.66;100049.50;5072202;28;20052;-64
2022/03/09 03:43:15;;;;;;;5.72;2.58;;;;;;;-8.56;51.03;100048.19;5069579;28;20118;-63
2022/03/09 03:45:46;;;;;;;8.27;2.20;;;;;;;-8.67;50.61;100051.41;5072474;28;20403;-63
2022/03/09 03:48:13;;;;;;;3.72;1.67;;;;;;;-8.83;51.02;100059.81;5068402;28;20141;-66
2022/03/09 03:50:40;;;;;;;8.93;2.83;;;;;;;-8.91;50.98;100047.31;5056297;28;20063;-68
2022/03/09 03:53:07;;;;;;;5.53;2.08;;;;;;;-8.92;51.14;100061.81;5040781;28;20136;-68
2022/03/09 03:55:34;;;;;;;12.55;2.63;;;;;;;-8.90;51.27;100059.75;5070720;28;20052;-66
2022/03/09 03:58:01;;;;;;;7.28;2.20;;;;;;;-8.91;51.32;100062.66;5071399;28;20131;-67
2022/03/09 04:00:28;;;;;;;4.75;1.90;;;;;;;-8.99;51.38;100060.09;5069143;28;20047;-66
2022/03/09 04:03:00;;;;;;;3.30;1.90;;;;;;;-8.96;51.22;100065.09;5071365;28;20135;-67
2022/03/09 04:05:29;;;;;;;3.67;1.85;;;;;;;-8.90;51.03;100072.38;5068874;28;20114;-67
2022/03/09 04:07:56;;;;;;;10.23;3.47;;;;;;;-8.97;50.57;100069.66;5064055;28;20080;-66
2022/03/09 04:10:23;;;;;;;7.82;2.53;;;;;;;-8.98;50.57;100069.84;5038943;28;20068;-66
2022/03/09 04:12:50;;;;;;;7.20;2.50;;;;;;;-8.96;51.03;100075.88;5063285;28;20518;-67
2022/03/09 04:15:17;;;;;;;5.45;2.20;;;;;;;-9.03;51.41;100067.72;5068897;28;20049;-66
2022/03/09 04:17:46;;;;;;;6.45;2.38;;;;;;;-8.90;50.46;100077.78;5045479;28;20132;-67
2022/03/09 04:20:15;;;;;;;10.05;2.70;;;;;;;-8.89;50.91;100082.97;5066935;28;20082;-68
2022/03/09 04:22:43;;;;;;;7.30;2.20;;;;;;;-8.90;50.51;100080.47;5062966;28;20045;-66
2022/03/09 04:25:11;;;;;;;6.53;2.67;;;;;;;-8.89;50.76;100088.38;5035335;28;20061;-66
2022/03/09 04:27:38;;;;;;;6.38;2.92;;;;;;;-8.87;50.87;100096.25;5029718;28;20567;-66
2022/03/09 04:30:07;;;;;;;7.13;2.53;;;;;;;-8.87;50.60;100096.25;5064688;28;20570;-67
2022/03/09 04:32:34;;;;;;;3.70;1.70;;;;;;;-8.91;50.75;100100.38;5071009;28;20422;-66
2022/03/09 04:35:04;;;;;;;3.90;2.35;;;;;;;-9.01;50.84;100103.41;5068742;28;20504;-66
2022/03/09 04:37:35;;;;;;;4.50;2.53;;;;;;;-9.02;50.84;100106.28;5056637;28;20123;-67
2022/03/09 04:40:03;;;;;;;6.65;3.03;;;;;;;-8.90;50.42;100112.81;5022047;28;20432;-67
2022/03/09 04:42:30;;;;;;;8.00;2.33;;;;;;;-8.86;50.83;100114.13;5056032;28;20052;-66
2022/03/09 04:44:58;;;;;;;5.47;2.22;;;;;;;-8.80;50.69;100113.34;5069528;28;20127;-68
2022/03/09 04:47:25;;;;;;;4.55;2.13;;;;;;;-8.72;50.38;100121.25;5069896;28;20122;-66
2022/03/09 04:49:52;;;;;;;5.97;2.80;;;;;;;-8.61;49.87;100113.50;5055162;28;20049;-67
2022/03/09 04:52:19;;;;;;;5.40;2.65;;;;;;;-8.45;49.86;100123.97;5068639;28;20056;-68
2022/03/09 04:54:47;;;;;;;6.90;2.55;;;;;;;-8.39;49.76;100119.63;5070585;28;20156;-66
2022/03/09 04:57:14;;;;;;;7.22;2.83;;;;;;;-8.26;49.36;100123.25;5068359;28;20136;-66
2022/03/09 04:59:41;;;;;;;11.23;2.47;;;;;;;-8.07;49.15;100133.31;5070250;28;20151;-66
2022/03/09 05:02:09;;;;;;;5.22;2.63;;;;;;;-7.92;48.99;100135.88;5068081;28;20075;-66
2022/03/09 05:04:36;;;;;;;5.80;2.63;;;;;;;-7.95;49.54;100139.81;5070418;28;20110;-67
2022/03/09 05:07:04;;;;;;;13.50;3.35;;;;;;;-7.99;49.09;100135.00;5038136;28;20079;-66
2022/03/09 05:09:31;;;;;;;10.82;5.25;;;;;;;-8.06;49.64;100128.72;5065636;28;20075;-66
2022/03/09 05:11:59;;;;;;;8.05;3.60;;;;;;;-8.06;49.59;100129.56;5065021;28;20060;-65
2022/03/09 05:14:26;;;;;;;7.97;2.97;;;;;;;-8.03;49.85;100133.72;5044454;28;20076;-66
2022/03/09 05:16:53;;;;;;;8.43;3.25;;;;;;;-7.90;49.53;100144.63;5063945;28;20135;-66
2022/03/09 05:19:20;;;;;;;7.95;2.38;;;;;;;-7.84;49.49;100138.41;5045561;28;20534;-66
2022/03/09 05:21:47;;;;;;;5.63;2.30;;;;;;;-7.58;48.79;100133.13;5063438;28;20045;-67
2022/03/09 05:24:34;;;;;;;4.88;2.45;;;;;;;-7.02;48.33;100147.22;5059285;28;20056;-67
2022/03/09 05:27:02;;;;;;;6.75;2.13;;;;;;;-6.69;47.24;100140.78;5068226;28;20136;-66
2022/03/09 05:29:29;;;;;;;5.53;2.33;;;;;;;-6.62;47.65;100144.34;5070010;28;20080;-66
2022/03/09 05:31:56;;;;;;;9.68;2.75;;;;;;;-5.47;45.84;100153.47;5067774;28;20044;-65
2022/03/09 05:34:23;;;;;;;14.55;2.55;;;;;;;-4.65;43.82;100159.66;5069937;28;20052;-64
2022/03/09 05:36:50;;;;;;;7.90;2.47;;;;;;;-3.26;42.24;100153.44;5060373;28;20055;-63
2022/03/09 05:39:17;;;;;;;6.32;2.63;;;;;;;-2.48;40.74;100154.22;5033340;28;20147;-64
2022/03/09 05:41:44;;;;;;;8.48;3.55;;;;;;;-3.15;41.02;100146.41;5063413;28;20131;-63
2022/03/09 05:44:11;;;;;;;11.63;3.35;;;;;;;-4.31;43.12;100150.22;5068350;28;20058;-64
2022/03/09 05:46:38;;;;;;;11.50;4.53;;;;;;;-4.38;43.74;100157.59;5069807;28;20048;-63
2022/03/09 05:49:05;;;;;;;11.25;3.55;;;;;;;-2.92;42.16;100147.34;5029379;28;20057;-64
2022/03/09 05:51:33;;;;;;;8.50;3.95;;;;;;;-1.76;39.69;100159.25;5034315;28;20099;-64
2022/03/09 05:54:00;;;;;;;7.13;3.20;;;;;;;-2.30;39.35;100157.72;5059354;28;20057;-65
2022/03/09 05:56:27;;;;;;;12.40;4.00;;;;;;;-0.93;38.88;100162.41;5050107;28;20451;-67
2022/03/09 05:58:54;;;;;;;7.15;3.78;;;;;;;-1.65;39.78;100154.88;5059438;28;20419;-67
2022/03/09 06:01:21;;;;;;;9.10;3.83;;;;;;;-1.53;39.83;100161.97;5057207;28;20131;-65
2022/03/09 06:03:48;;;;;;;8.80;3.78;;;;;;;0.78;37.01;100153.22;5058780;28;20135;-66
2022/03/09 06:06:15;;;;;;;6.60;3.28;;;;;;;2.60;34.24;100162.06;5073574;28;20048;-67
2022/03/09 06:08:42;;;;;;;7.55;3.35;;;;;;;3.98;32.03;100155.63;5071156;28;20423;-66
2022/03/09 06:11:09;;;;;;;8.98;3.60;;;;;;;3.40;32.58;100162.41;5066381;28;20049;-66
2022/03/09 06:13:36;;;;;;;8.60;3.53;;;;;;;2.27;33.41;100170.59;5067183;28;20534;-67
2022/03/09 06:16:03;;;;;;;6.55;3.60;;;;;;;4.00;31.73;100168.03;5062993;28;20135;-67
2022/03/09 06:18:31;;;;;;;7.47;3.30;;;;;;;4.79;29.78;100168.19;5058073;28;20053;-67
2022/03/09 06:20:58;;;;;;;9.10;3.35;;;;;;;6.34;28.93;100163.75;5059480;28;20071;-66
2022/03/09 06:23:25;;;;;;;5.95;3.25;;;;;;;8.30;26.73;100164.84;5060470;28;20041;-66
2022/03/09 06:25:53;;;;;;;7.47;3.53;;;;;;;8.99;24.65;100164.69;5071005;28;20053;-66
2022/03/09 06:28:20;;;;;;;15.00;3.22;;;;;;;9.62;25.01;100168.34;5065834;28;20098;-67
2022/03/09 06:30:47;;;;;;;7.43;3.65;;;;;;;9.66;24.65;100168.56;5070212;28;20526;-66
2022/03/09 06:33:14;;;;;;;8.02;3.13;;;;;;;9.84;24.37;100178.72;5058062;28;20066;-65
2022/03/09 06:35:41;;;;;;;11.32;3.53;;;;;;;9.11;24.59;100174.16;5056923;28;20059;-67
2022/03/09 06:38:11;;;;;;;11.55;5.45;;;;;;;8.78;24.33;100186.44;5064146;28;20135;-67
2022/03/09 06:40:39;;;;;;;6.80;3.70;;;;;;;7.98;24.98;100186.94;5055381;28;20095;-66
2022/03/09 06:43:06;;;;;;;7.00;3.63;;;;;;;7.43;25.25;100194.06;5056385;28;21562;-67
2022/03/09 06:45:33;;;;;;;11.23;3.67;;;;;;;8.05;25.04;100182.66;5054682;28;20076;-67
2022/03/09 06:48:01;;;;;;;13.05;3.83;;;;;;;8.39;24.17;100183.25;5052926;28;20052;-66
2022/03/09 06:50:29;;;;;;;10.30;3.72;;;;;;;8.68;24.23;100186.63;5058118;28;20199;-66
2022/03/09 06:52:56;;;;;;;7.35;3.65;;;;;;;7.32;25.15;100192.56;5072879;28;20052;-67
2022/03/09 06:55:23;;;;;;;8.63;4.60;;;;;;;6.95;25.13;100200.72;5071218;28;20496;-66
2022/03/09 06:57:50;;;;;;;14.45;3.65;;;;;;;5.15;27.07;100189.84;5057040;28;20044;-67
2022/03/09 07:00:18;;;;;;;6.25;3.25;;;;;;;5.72;27.09;100192.06;5072178;28;20504;-66
2022/03/09 07:02:46;;;;;;;8.65;3.75;;;;;;;5.63;25.99;100194.59;5058484;28;20162;-67
2022/03/09 07:05:14;;;;;;;7.90;3.25;;;;;;;6.92;24.95;100185.56;5072403;28;20048;-66
2022/03/09 07:07:41;;;;;;;7.32;3.25;;;;;;;8.02;23.57;100194.34;5070860;28;20140;-66
2022/03/09 07:10:10;;;;;;;5.93;3.03;;;;;;;7.95;23.10;100190.31;5065088;28;20051;-66
2022/03/09 07:12:41;;;;;;;8.23;3.92;;;;;;;8.35;23.07;100187.75;5069828;28;20036;-68
2022/03/09 07:15:09;;;;;;;8.38;3.30;;;;;;;8.18;22.41;100183.84;5072790;28;20060;-66
2022/03/09 07:17:38;;;;;;;9.60;3.08;;;;;;;7.76;23.16;100179.25;5070097;28;20048;-67
2022/03/09 07:20:06;;;;;;;7.50;4.05;;;;;;;7.24;23.35;100184.91;5072010;28;20461;-66
2022/03/09 07:22:39;;;;;;;6.57;3.25;;;;;;;7.36;23.39;100179.78;5069916;28;20442;-67
2022/03/09 07:25:07;;;;;;;6.20;3.35;;;;;;;8.19;22.46;100178.00;5064938;28;20095;-67
2022/03/09 07:27:33;;;;;;;6.22;2.95;;;;;;;7.03;23.64;100189.03;5070149;28;20083;-67
2022/03/09 07:30:01;;;;;;;6.53;2.75;;;;;;;7.18;23.92;100184.16;5071998;28;20444;-67
2022/03/09 07:32:29;;;;;;;5.10;2.95;;;;;;;6.64;24.02;100194.69;5069692;28;20102;-67
2022/03/09 07:35:16;;;;;;;10.02;3.80;;;;;;;7.23;23.39;100194.34;5045994;28;20127;-66
2022/03/09 07:37:43;;;;;;;6.32;3.28;;;;;;;7.49;23.21;100190.09;5057291;28;20048;-66
2022/03/09 07:40:10;;;;;;;9.98;3.42;;;;;;;6.42;23.28;100188.00;5072352;28;20064;-67
2022/03/09 07:42:37;;;;;;;8.75;3.35;;;;;;;5.82;24.01;100185.69;5069659;28;20044;-67
2022/03/09 07:45:06;;;;;;;8.85;3.50;;;;;;;4.51;25.15;100186.19;5071647;28;20072;-67
2022/03/09 07:47:35;;;;;;;6.35;2.95;;;;;;;5.26;24.59;100194.22;5069595;28;20044;-67
2022/03/09 07:50:06;;;;;;;7.05;3.42;;;;;;;6.75;23.88;100203.72;5064331;28;20418;-66
2022/03/09 07:52:34;;;;;;;7.38;2.60;;;;;;;8.25;22.38;100199.00;5069234;28;20076;-67
2022/03/09 07:55:06;;;;;;;9.43;3.47;;;;;;;7.89;22.26;100195.09;5071366;28;20052;-67
2022/03/09 07:57:33;;;;;;;7.10;4.07;;;;;;;7.83;21.54;100190.75;5069518;28;20602;-66
2022/03/09 08:00:04;;;;;;;7.93;3.58;;;;;;;6.66;22.44;100211.81;5063044;28;20070;-67
2022/03/09 08:02:31;;;;;;;8.10;3.67;;;;;;;6.59;21.76;100197.50;5066593;28;20136;-66
2022/03/09 08:04:58;;;;;;;8.18;3.17;;;;;;;7.64;21.53;100197.41;5061720;28;20076;-66
2022/03/09 08:07:25;;;;;;;5.50;2.90;;;;;;;7.56;21.22;100196.13;5068891;28;20063;-66
2022/03/09 08:09:52;;;;;;;6.55;3.20;;;;;;;5.89;22.10;100188.97;5071142;28;20131;-67
2022/03/09 08:12:19;;;;;;;7.70;3.55;;;;;;;4.83;23.41;100210.66;5060925;28;20072;-66
2022/03/09 08:14:46;;;;;;;5.90;3.25;;;;;;;5.42;23.11;100204.09;5070956;28;20151;-66
2022/03/09 08:17:14;;;;;;;4.95;2.60;;;;;;;7.29;21.32;100195.91;5069553;28;20044;-66
2022/03/09 08:19:41;;;;;;;5.03;2.83;;;;;;;7.21;21.39;100196.56;5071270;28;20149;-67
2022/03/09 08:22:09;;;;;;;6.63;2.80;;;;;;;8.11;21.08;100198.09;5070286;28;20063;-67
2022/03/09 08:24:36;;;;;;;8.23;2.75;;;;;;;9.33;19.90;100204.78;5061012;28;20048;-68
2022/03/09 08:27:04;;;;;;;7.63;3.15;;;;;;;10.02;17.75;100191.63;5071174;28;20062;-66
2022/03/09 08:29:31;;;;;;;7.85;3.17;;;;;;;10.76;18.49;100194.53;5068797;28;20048;-67
2022/03/09 08:31:58;;;;;;;5.82;2.70;;;;;;;11.22;18.23;100191.31;5071425;28;20044;-67
2022/03/09 08:34:25;;;;;;;6.47;2.70;;;;;;;12.83;17.42;100193.53;5068418;28;20056;-68
2022/03/09 08:36:52;;;;;;;8.25;3.28;;;;;;;13.60;15.76;100207.25;5070796;28;20098;-66
2022/03/09 08:39:20;;;;;;;5.57;2.78;;;;;;;14.89;15.55;100193.91;5068232;28;20115;-67
2022/03/09 08:41:47;;;;;;;5.07;2.70;;;;;;;17.02;14.81;100199.25;5070632;28;20036;-67
2022/03/09 08:44:35;;;;;;;10.88;3.47;;;;;;;17.52;12.92;100190.16;5068304;28;20139;-62
2022/03/09 08:47:04;;;;;;;12.55;2.80;;;;;;;17.81;13.21;100196.16;5041189;28;20146;-60
2022/03/09 08:49:33;;;;;;;6.00;3.22;;;;;;;19.59;12.58;100200.34;5048741;28;20448;-60
2022/03/09 08:52:00;;;;;;;6.13;3.10;;;;;;;19.94;11.80;100212.25;5049964;28;20119;-60
2022/03/09 08:54:27;;;;;;;7.38;3.20;;;;;;;19.91;11.75;100205.38;5052354;28;20301;-60
2022/03/09 08:56:54;;;;;;;5.38;3.22;;;;;;;21.02;11.60;100204.53;5051318;28;20563;-60
2022/03/09 08:59:21;;;;;;;5.00;2.78;;;;;;;20.34;11.19;100208.88;5051467;28;20052;-60
2022/03/09 09:01:49;;;;;;;7.05;2.75;;;;;;;18.92;11.29;100204.69;5034404;28;20041;-64
2022/03/09 09:04:21;;;;;;;4.85;3.03;;;;;;;17.20;12.35;100211.00;5053994;28;20428;-62
2022/03/09 09:06:49;;;;;;;7.95;2.63;;;;;;;16.50;12.63;100223.81;5056031;28;20067;-63
2022/03/09 09:09:17;;;;;;;8.38;3.35;;;;;;;15.84;13.07;100220.50;5056832;28;20056;-61
2022/03/09 09:11:45;;;;;;;5.65;3.10;;;;;;;15.97;13.03;100215.69;5061998;28;20037;-62
2022/03/09 09:14:13;;;;;;;4.05;2.53;;;;;;;17.98;11.92;100209.03;5046467;28;21274;-61
2022/03/09 09:16:45;;;;;;;4.78;2.83;;;;;;;19.56;11.25;100227.34;5051215;28;20127;-60
2022/03/09 09:19:13;;;;;;;4.10;2.30;;;;;;;19.70;10.84;100212.66;5033254;28;20063;-61
2022/03/09 09:21:44;;;;;;;5.22;2.35;;;;;;;20.82;10.51;100219.22;5051890;28;20127;-60
2022/03/09 09:24:16;;;;;;;3.72;2.53;;;;;;;22.02;10.28;100210.03;5051677;28;20511;-61
2022/03/09 09:26:44;;;;;;;4.35;2.60;;;;;;;22.83;9.83;100203.63;5054615;28;20052;-61
2022/03/09 09:29:20;;;;;;;4.47;2.40;;;;;;;21.90;9.64;100230.94;5051259;28;20053;-62
2022/03/09 09:31:48;;;;;;;4.70;2.78;;;;;;;22.69;9.54;100231.13;5056029;28;20482;-60
2022/03/09 09:34:16;;;;;;;4.95;2.53;;;;;;;23.24;9.13;100227.75;5033524;28;20069;-61
2022/03/09 09:36:46;;;;;;;4.70;2.67;;;;;;;22.53;9.22;100222.94;5055302;28;20051;-61
2022/03/09 09:39:15;;;;;;;4.28;2.50;;;;;;;23.17;8.97;100232.56;5052946;28;20092;-68
2022/03/09 09:41:45;;;;;;;4.50;2.75;;;;;;;23.81;9.04;100233.53;5058173;28;20049;-66
2022/03/09 09:44:13;;;;;;;7.00;3.13;;;;;;;22.97;8.22;100225.59;5050679;28;20065;-66
2022/03/09 09:46:43;;;;;;;4.78;2.60;;;;;;;21.53;9.11;100238.69;5051939;28;20586;-66
2022/03/09 09:49:14;;;;;;;5.45;2.45;;;;;;;19.69;9.30;100234.41;5051700;28;20048;-66
2022/03/09 09:51:44;;;;;;;4.72;2.28;;;;;;;15.73;11.44;100236.19;5037080;28;20454;-67
2022/03/09 09:54:13;;;;;;;9.77;2.67;;;;;;;12.72;13.21;100242.47;5054157;28;20044;-66
2022/03/09 09:56:42;;;;;;;5.13;2.17;;;;;;;10.38;14.74;100248.09;5065213;28;20456;-67
2022/03/09 09:59:10;;;;;;;5.75;2.40;;;;;;;8.05;15.72;100259.44;5064870;28;20131;-67
2022/03/09 10:01:38;;;;;;;4.35;2.33;;;;;;;6.71;17.25;100253.22;5052186;28;20045;-66
2022/03/09 10:04:06;;;;;;;5.00;2.53;;;;;;;5.00;17.64;100245.06;5055056;28;20045;-66
2022/03/09 10:06:35;;;;;;;4.68;2.47;;;;;;;4.01;18.68;100252.25;5068881;28;20134;-67
2022/03/09 10:09:03;;;;;;;5.18;2.70;;;;;;;3.54;19.20;100246.91;5066355;28;20482;-66
2022/03/09 10:11:53;;;;;;;3.78;2.13;;;;;;;2.76;20.61;100257.19;5064248;28;20131;-67
2022/03/09 10:14:50;;;;;;;4.78;1.80;;;;;;;1.98;21.32;100260.66;5056617;28;20057;-66
2022/03/09 10:17:20;;;;;;;4.75;2.28;;;;;;;1.60;22.04;100264.34;5025715;28;20049;-66
2022/03/09 10:20:03;;;;;;;3.90;2.17;;;;;;;1.27;22.13;100275.47;5038914;28;20072;-67
2022/03/09 10:22:36;;;;;;;7.38;2.22;;;;;;;0.68;22.11;100267.25;5062591;28;20048;-66
2022/03/09 10:25:25;;;;;;;3.85;1.73;;;;;;;-0.08;22.67;100271.41;5059929;28;20106;-60
2022/03/09 10:27:54;;;;;;;4.00;2.00;;;;;;;-0.28;22.62;100278.44;5053188;28;20761;-59
2022/03/09 10:30:33;;;;;;;9.23;1.85;;;;;;;-0.36;23.13;100281.53;5051591;28;20187;-60
2022/03/09 10:33:08;;;;;;;5.28;2.33;;;;;;;-0.49;23.14;100284.56;5050325;28;20076;-60
2022/03/09 10:35:44;;;;;;;4.13;1.80;;;;;;;-0.68;23.73;100288.56;5052931;28;20049;-60
2022/03/09 10:38:17;;;;;;;3.47;1.77;;;;;;;-1.02;23.91;100287.56;5049980;28;20069;-61
2022/03/09 10:40:46;;;;;;;6.93;2.50;;;;;;;-1.26;24.58;100279.63;5050581;28;20049;-62
2022/03/09 10:43:16;;;;;;;9.38;2.47;;;;;;;-1.61;25.39;100286.97;5050176;28;20044;-61
2022/03/09 10:46:12;;;;;;;6.22;2.15;;;;;;;-1.86;25.75;100285.25;5050317;28;20048;-60
2022/03/09 10:49:00;;;;;;;5.55;1.65;;;;;;;-1.68;25.15;100291.72;5052465;28;20600;-60
2022/03/09 10:51:30;;;;;;;4.43;2.28;;;;;;;-1.60;25.32;100291.38;5058015;28;20750;-59
2022/03/09 10:54:00;;;;;;;6.15;2.47;;;;;;;-1.80;25.56;100288.13;5064364;28;20076;-59
2022/03/09 10:56:27;;;;;;;5.13;2.67;;;;;;;-1.88;26.04;100283.84;5057471;28;20101;-60
2022/03/09 10:58:55;;;;;;;4.03;2.05;;;;;;;-1.91;25.68;100281.59;5066142;28;20072;-60
2022/03/09 11:01:23;;;;;;;8.40;2.50;;;;;;;-1.90;26.98;100284.09;5038446;28;20542;-60
2022/03/09 11:03:51;;;;;;;5.20;2.50;;;;;;;-1.94;26.44;100288.34;5059637;28;20041;-61
2022/03/09 11:06:20;;;;;;;5.25;2.38;;;;;;;-1.73;26.71;100288.84;5052418;28;20061;-60
2022/03/09 11:08:47;;;;;;;5.38;2.00;;;;;;;-1.77;27.10;100280.31;5052960;28;20135;-61
2022/03/09 11:11:15;;;;;;;3.78;2.38;;;;;;;-1.92;27.54;100283.47;5068068;28;20048;-60
2022/03/09 11:13:42;;;;;;;6.40;2.55;;;;;;;-1.98;27.60;100298.03;5061882;28;20456;-59
2022/03/09 11:16:09;;;;;;;5.25;2.45;;;;;;;-1.88;27.40;100292.03;5039127;28;20063;-61
2022/03/09 11:18:36;;;;;;;3.80;2.08;;;;;;;-1.95;27.56;100291.31;5064916;28;20057;-60
2022/03/09 11:21:09;;;;;;;4.47;2.35;;;;;;;-1.98;28.06;100295.31;5055154;28;20077;-59
2022/03/09 11:23:41;;;;;;;3.97;1.65;;;;;;;-2.06;28.40;100290.22;5072070;28;20102;-60
2022/03/09 11:26:16;;;;;;;10.07;2.10;;;;;;;-1.95;28.11;100296.75;5069826;28;20131;-62
2022/03/09 11:28:44;;;;;;;4.15;2.28;;;;;;;-1.87;27.50;100294.53;5072156;28;20572;-60
2022/03/09 11:31:14;;;;;;;4.70;2.00;;;;;;;-1.91;28.58;100298.78;5069789;28;20057;-61
2022/03/09 11:33:49;;;;;;;4.47;2.50;;;;;;;-2.16;28.74;100306.28;5046808;28;20088;-60
2022/03/09 11:36:23;;;;;;;6.95;1.88;;;;;;;-2.24;28.47;100298.47;5065002;28;20048;-60
2022/03/09 11:38:54;;;;;;;2.92;1.92;;;;;;;-2.29;28.44;100303.75;5071703;28;20052;-60